Time;durP1;ratioP1;P1;durP2;ratioP2;P2;SDS_P1;SDS_P2;PMS_P1;PMS_P2;Temp;Humidity;BMP_temperature;BMP_pressure;BME280_temperature;BME280_humidity;BME280_pressure;Samples;Min_cycle;Max_cycle;Signal;HPM_P1;HPM_P2
2022/05/16 00:03:57;;;;;;;4.25;1.10;;;18.60;95.00;;;;;;20558983;28;20035;-78
2022/05/16 00:13:58;;;;;;;2.05;0.95;;;18.60;94.90;;;;;;20561488;28;20053;-78
2022/05/16 00:23:59;;;;;;;4.70;1.75;;;18.50;95.30;;;;;;20542416;28;20498;-78
2022/05/16 00:34:00;;;;;;;4.47;1.20;;;18.50;96.00;;;;;;20558789;28;20430;-78
2022/05/16 00:44:01;;;;;;;2.58;0.90;;;18.40;96.50;;;;;;20545303;28;20409;-79
2022/05/16 00:54:33;;;;;;;2.72;1.08;;;18.30;96.90;;;;;;20544823;28;20050;-78
2022/05/16 01:04:55;;;;;;;2.55;0.90;;;18.10;97.10;;;;;;20553449;28;20043;-79
2022/05/16 01:14:57;;;;;;;1.98;1.02;;;18.00;97.60;;;;;;20577722;28;20050;-79
2022/05/16 01:25:06;;;;;;;2.95;1.05;;;17.90;98.20;;;;;;20556507;28;20043;-79
2022/05/16 01:35:08;;;;;;;2.42;1.10;;;17.80;98.80;;;;;;20555838;28;20114;-79
2022/05/16 01:45:09;;;;;;;3.50;1.55;;;17.60;99.50;;;;;;20561894;28;20049;-79
2022/05/16 01:55:11;;;;;;;2.22;0.98;;;17.50;99.90;;;;;;20565789;28;20069;-79
2022/05/16 02:05:16;;;;;;;3.00;0.90;;;17.40;99.90;;;;;;20554632;28;20046;-79
2022/05/16 02:15:22;;;;;;;3.20;1.50;;;17.30;99.90;;;;;;20564811;28;20058;-79
2022/05/16 02:25:23;;;;;;;1.98;0.90;;;17.20;99.90;;;;;;20560359;28;20034;-79
2022/05/16 02:35:24;;;;;;;2.50;1.58;;;17.10;99.90;;;;;;20568645;28;20100;-79
2022/05/16 02:45:28;;;;;;;3.20;1.00;;;17.10;99.90;;;;;;20552007;28;20055;-79
2022/05/16 02:55:31;;;;;;;1.95;0.80;;;16.90;99.90;;;;;;20558602;28;20046;-79
2022/05/16 03:05:32;;;;;;;3.63;1.05;;;16.90;99.90;;;;;;20542254;28;20054;-79
2022/05/16 03:15:33;;;;;;;2.75;1.13;;;16.70;99.90;;;;;;20550863;28;20388;-79
2022/05/16 03:25:35;;;;;;;3.08;1.40;;;16.80;99.90;;;;;;20564725;28;20076;-79
2022/05/16 03:35:36;;;;;;;3.47;0.88;;;16.70;99.90;;;;;;20562468;28;20149;-79
2022/05/16 03:45:41;;;;;;;2.90;0.63;;;16.60;99.90;;;;;;20578749;28;20073;-79
2022/05/16 03:55:42;;;;;;;3.72;1.00;;;16.50;99.90;;;;;;20559440;28;20047;-79
2022/05/16 04:05:43;;;;;;;2.22;1.27;;;16.50;99.90;;;;;;20570614;28;20042;-79
2022/05/16 04:15:44;;;;;;;2.53;1.00;;;16.40;99.90;;;;;;20551120;28;20668;-79
2022/05/16 04:25:46;;;;;;;2.95;1.23;;;16.40;99.90;;;;;;20555431;28;20359;-80
2022/05/16 04:35:47;;;;;;;1.48;1.00;;;16.40;99.90;;;;;;20564811;28;20045;-79
2022/05/16 04:45:48;;;;;;;3.17;0.90;;;16.50;99.90;;;;;;20562295;28;20122;-79
2022/05/16 04:55:49;;;;;;;3.50;1.35;;;16.70;99.90;;;;;;20550032;28;20038;-79
2022/05/16 05:05:50;;;;;;;3.47;1.08;;;16.80;99.90;;;;;;20580786;28;20055;-79
2022/05/16 05:16:01;;;;;;;2.15;1.23;;;17.00;99.90;;;;;;20571299;28;20799;-79
2022/05/16 05:26:06;;;;;;;2.30;1.05;;;17.40;99.90;;;;;;20583502;28;20043;-80
2022/05/16 05:36:08;;;;;;;2.63;1.50;;;18.00;99.90;;;;;;20581560;28;20441;-79
2022/05/16 05:46:09;;;;;;;3.28;1.30;;;18.40;99.90;;;;;;20560904;28;20065;-79
2022/05/16 05:56:11;;;;;;;2.35;1.10;;;18.70;99.90;;;;;;20574019;28;20039;-79
2022/05/16 06:06:12;;;;;;;2.58;1.40;;;18.70;99.90;;;;;;20581734;28;20030;-79
2022/05/16 06:16:13;;;;;;;3.67;1.33;;;18.70;99.90;;;;;;20567899;28;20042;-79
2022/05/16 06:26:15;;;;;;;4.07;1.60;;;18.70;99.90;;;;;;20565346;28;20611;-79
2022/05/16 06:36:16;;;;;;;5.78;1.90;;;18.70;99.90;;;;;;20581241;28;20077;-79
2022/05/16 06:46:18;;;;;;;4.03;1.25;;;18.80;99.90;;;;;;20573972;28;20046;-79
2022/05/16 06:56:20;;;;;;;2.42;1.20;;;18.90;99.90;;;;;;20576038;28;20061;-79
2022/05/16 07:06:22;;;;;;;3.38;1.60;;;18.70;99.90;;;;;;20574014;28;20053;-79
2022/05/16 07:16:23;;;;;;;3.10;1.38;;;18.70;99.90;;;;;;20572269;28;20046;-79
2022/05/16 07:36:44;;;;;;;3.45;1.35;;;18.80;99.90;;;;;;20556431;28;20053;-79
2022/05/16 07:46:45;;;;;;;3.65;2.10;;;18.90;99.90;;;;;;20550890;28;20417;-79
2022/05/16 07:56:47;;;;;;;5.25;1.83;;;18.90;99.90;;;;;;20560524;28;20056;-79
2022/05/16 08:06:48;;;;;;;3.25;1.58;;;19.20;99.90;;;;;;20551554;28;21458;-80
2022/05/16 08:16:49;;;;;;;5.78;2.40;;;19.70;99.90;;;;;;20561218;28;20058;-79
2022/05/16 08:26:50;;;;;;;3.28;1.30;;;20.00;99.90;;;;;;20553462;28;20038;-80
2022/05/16 08:47:23;;;;;;;3.90;1.88;;;20.10;99.90;;;;;;20547397;28;20505;-79
2022/05/16 08:57:32;;;;;;;2.63;1.55;;;20.50;99.90;;;;;;20576115;28;20062;-79
2022/05/16 09:08:06;;;;;;;4.25;1.40;;;21.50;99.90;;;;;;20598015;28;20046;-79
2022/05/16 09:18:24;;;;;;;2.90;1.67;;;22.10;99.90;;;;;;20588813;28;20142;-79
2022/05/16 09:28:34;;;;;;;3.50;1.80;;;22.80;99.90;;;;;;20608312;28;20123;-79
2022/05/16 09:38:36;;;;;;;3.28;1.40;;;23.10;99.90;;;;;;20575870;28;20043;-79
2022/05/16 09:48:37;;;;;;;2.97;1.58;;;23.50;99.90;;;;;;20599635;28;20035;-79
2022/05/16 09:59:04;;;;;;;2.63;1.27;;;24.20;99.90;;;;;;20600515;28;20106;-79
2022/05/16 10:09:08;;;;;;;5.15;2.20;;;24.00;99.90;;;;;;20588472;28;21331;-79
2022/05/16 10:19:14;;;;;;;3.90;1.88;;;24.50;99.90;;;;;;20591275;28;20043;-79
2022/05/16 10:29:23;;;;;;;6.10;2.03;;;24.20;99.90;;;;;;20579610;28;20755;-79
2022/05/16 10:39:27;;;;;;;3.03;1.33;;;24.50;99.90;;;;;;20596913;28;20043;-79
2022/05/16 10:49:36;;;;;;;2.55;0.90;;;24.30;99.90;;;;;;20567719;28;20102;-79
2022/05/16 11:00:06;;;;;;;3.42;1.00;;;23.80;99.90;;;;;;20567394;28;20423;-79
2022/05/16 11:10:10;;;;;;;2.10;1.10;;;22.00;99.90;;;;;;20576769;28;20453;-78
2022/05/16 11:20:42;;;;;;;4.05;1.40;;;19.80;99.90;;;;;;20603658;28;20176;-79
2022/05/16 11:30:51;;;;;;;4.43;1.67;;;19.10;99.90;;;;;;20584163;28;20130;-79
2022/05/16 11:41:11;;;;;;;3.20;1.30;;;18.70;99.90;;;;;;20580023;28;20058;-79
2022/05/16 11:51:18;;;;;;;4.22;1.98;;;18.60;99.90;;;;;;20584369;28;20357;-79
2022/05/16 12:01:38;;;;;;;10.87;4.17;;;18.80;99.90;;;;;;20588657;28;20138;-79
2022/05/16 12:11:53;;;;;;;8.85;5.38;;;19.00;99.90;;;;;;20579692;28;20042;-78
2022/05/16 12:22:42;;;;;;;6.10;3.50;;;19.20;99.90;;;;;;20585493;28;20039;-79
2022/05/16 12:32:54;;;;;;;4.13;2.23;;;19.10;99.90;;;;;;20569736;28;20050;-78
2022/05/16 12:43:18;;;;;;;6.75;2.25;;;19.00;99.90;;;;;;20573710;28;20501;-78
2022/05/16 12:53:48;;;;;;;8.20;3.55;;;18.50;99.90;;;;;;20580777;28;20398;-78
2022/05/16 13:04:05;;;;;;;9.95;3.83;;;18.30;99.90;;;;;;20567041;28;20467;-78
2022/05/16 13:14:14;;;;;;;8.95;3.28;;;18.60;99.90;;;;;;20600208;28;20184;-78
2022/05/16 13:24:18;;;;;;;6.55;3.17;;;18.80;99.90;;;;;;20593080;28;20053;-78
2022/05/16 13:34:51;;;;;;;5.78;1.92;;;19.40;99.90;;;;;;20592899;28;20045;-78
2022/05/16 13:44:56;;;;;;;4.70;1.73;;;20.10;99.90;;;;;;20596354;28;20045;-78
2022/05/16 13:55:00;;;;;;;3.00;1.20;;;20.50;99.90;;;;;;20591552;28;20349;-78
2022/05/16 14:05:11;;;;;;;3.67;1.02;;;20.80;99.90;;;;;;20590769;28;20042;-79
2022/05/16 14:15:37;;;;;;;1.90;0.90;;;21.10;99.90;;;;;;20605950;28;20049;-78
2022/05/16 14:25:40;;;;;;;3.03;1.42;;;21.30;99.90;;;;;;20594507;28;20034;-78
2022/05/16 14:35:53;;;;;;;2.63;0.98;;;21.10;99.90;;;;;;20587321;28;20046;-79
2022/05/16 14:56:16;;;;;;;4.80;1.55;;;20.30;99.90;;;;;;20596656;28;20532;-78
2022/05/16 15:06:19;;;;;;;9.32;1.48;;;19.90;99.90;;;;;;20579889;28;20065;-78
2022/05/16 15:16:21;;;;;;;3.67;0.85;;;19.70;99.90;;;;;;20574416;28;20050;-80
2022/05/16 15:26:22;;;;;;;3.60;1.25;;;19.70;99.90;;;;;;20592446;28;20065;-80
2022/05/16 15:36:25;;;;;;;2.00;0.88;;;19.80;99.90;;;;;;20590468;28;20064;-81
2022/05/16 15:46:26;;;;;;;2.17;0.75;;;19.60;99.90;;;;;;20605200;28;20045;-80
2022/05/16 15:56:27;;;;;;;3.15;0.82;;;19.60;99.90;;;;;;20567520;28;20115;-80
2022/05/16 16:16:50;;;;;;;1.60;0.73;;;19.70;99.90;;;;;;20599350;28;20053;-80
2022/05/16 16:26:51;;;;;;;4.15;1.20;;;19.80;99.90;;;;;;20551473;28;20362;-80
2022/05/16 16:36:53;;;;;;;2.50;1.00;;;19.90;99.90;;;;;;20565404;28;20046;-80
2022/05/16 16:46:54;;;;;;;1.92;0.90;;;19.90;99.90;;;;;;20595219;28;20057;-81
2022/05/16 17:07:16;;;;;;;1.70;0.88;;;19.60;99.90;;;;;;20570653;28;20247;-80
2022/05/16 17:17:17;;;;;;;3.45;0.93;;;19.50;99.90;;;;;;20588461;28;20102;-80
2022/05/16 17:27:19;;;;;;;5.72;1.00;;;19.70;99.90;;;;;;20587930;28;20679;-80
2022/05/16 17:37:20;;;;;;;5.07;1.70;;;19.70;99.90;;;;;;20570926;28;20115;-80
2022/05/16 17:47:23;;;;;;;3.42;0.70;;;19.70;99.90;;;;;;20589607;28;20134;-80
2022/05/16 17:57:24;;;;;;;2.97;0.60;;;19.70;99.90;;;;;;20589012;28;20253;-79
2022/05/16 18:07:25;;;;;;;4.00;1.52;;;19.70;99.90;;;;;;20571306;28;20129;-80
2022/05/16 18:17:26;;;;;;;2.63;0.80;;;19.50;99.90;;;;;;20596709;28;20053;-80
2022/05/16 18:27:29;;;;;;;3.72;1.08;;;19.40;99.90;;;;;;20587598;28;20122;-80
2022/05/16 18:37:30;;;;;;;3.63;1.08;;;19.20;99.90;;;;;;20598106;28;21564;-80
2022/05/16 18:57:58;;;;;;;3.45;0.90;;;18.90;99.90;;;;;;20593536;28;20057;-80
2022/05/16 19:07:59;;;;;;;3.10;1.17;;;18.70;99.90;;;;;;20565011;28;20333;-80
2022/05/16 19:18:04;;;;;;;2.67;0.80;;;18.60;99.90;;;;;;20581966;28;20046;-80
2022/05/16 19:38:27;;;;;;;3.92;1.38;;;18.20;99.90;;;;;;20568572;28;19925;-80
2022/05/16 19:48:28;;;;;;;1.77;0.57;;;18.00;99.90;;;;;;20573957;28;20522;-80
2022/05/16 19:58:30;;;;;;;3.05;0.65;;;17.80;99.90;;;;;;20570842;28;20430;-80
2022/05/16 20:08:31;;;;;;;7.47;0.82;;;17.60;99.90;;;;;;20588856;28;20041;-80
2022/05/16 20:18:32;;;;;;;1.70;0.50;;;17.50;99.90;;;;;;20582222;28;20222;-80
2022/05/16 20:28:33;;;;;;;3.33;0.60;;;17.40;99.90;;;;;;20594801;28;20034;-80
2022/05/16 20:38:34;;;;;;;1.90;0.73;;;17.20;99.90;;;;;;20606450;28;20046;-80
2022/05/16 20:48:36;;;;;;;2.20;0.70;;;17.00;99.90;;;;;;20604519;28;20050;-80
2022/05/16 20:58:37;;;;;;;3.15;0.98;;;16.80;99.90;;;;;;20591441;28;20227;-80
2022/05/16 21:08:38;;;;;;;1.52;0.60;;;16.80;99.90;;;;;;20537066;28;20060;-79
2022/05/16 21:18:40;;;;;;;1.80;0.60;;;16.70;99.90;;;;;;20577785;28;20050;-79
2022/05/16 21:28:41;;;;;;;2.67;0.98;;;16.60;99.90;;;;;;20613516;28;20034;-79
2022/05/16 21:38:42;;;;;;;2.05;0.77;;;16.50;99.90;;;;;;20570115;28;20301;-79
2022/05/16 21:48:44;;;;;;;4.13;2.00;;;16.40;99.90;;;;;;20588198;28;20045;-80
2022/05/16 21:58:45;;;;;;;2.85;0.90;;;16.30;99.90;;;;;;20590553;28;20053;-80
2022/05/16 22:08:46;;;;;;;3.47;1.25;;;16.20;99.90;;;;;;20563873;28;20050;-80
2022/05/16 22:18:59;;;;;;;3.30;1.00;;;16.00;99.90;;;;;;20578755;28;20387;-79
2022/05/16 22:29:02;;;;;;;1.83;0.95;;;15.90;99.90;;;;;;20567755;28;20213;-79
2022/05/16 22:39:06;;;;;;;3.72;1.05;;;15.80;99.90;;;;;;20575058;28;20058;-79
2022/05/16 22:49:08;;;;;;;2.15;1.20;;;15.70;99.90;;;;;;20577785;28;20517;-79
2022/05/16 22:59:10;;;;;;;2.60;1.20;;;15.60;99.90;;;;;;20599141;28;20493;-79
2022/05/16 23:09:11;;;;;;;3.67;0.90;;;15.50;99.90;;;;;;20585830;28;20045;-79
2022/05/16 23:19:13;;;;;;;1.85;0.82;;;15.50;99.90;;;;;;20597398;28;20657;-79
2022/05/16 23:29:15;;;;;;;3.42;1.15;;;15.40;99.90;;;;;;20589140;28;20439;-79
2022/05/16 23:39:21;;;;;;;2.58;1.25;;;15.40;99.90;;;;;;20568211;28;20145;-79
2022/05/16 23:49:22;;;;;;;2.55;0.77;;;15.30;99.90;;;;;;20585924;28;20068;-80
2022/05/16 23:59:23;;;;;;;4.20;1.77;;;15.30;99.90;;;;;;20549683;28;20464;-80
